createdAt,value
2023-02-11T00:01:48.979Z,26.10
2023-02-11T00:04:16.444Z,25.35
2023-02-11T00:06:42.972Z,25.38
2023-02-11T00:09:10.822Z,24.83
2023-02-11T00:11:37.385Z,28.55
2023-02-11T00:14:07.726Z,26.80
2023-02-11T00:16:34.537Z,27.30
2023-02-11T00:19:03.110Z,27.23
2023-02-11T00:21:29.773Z,26.80
2023-02-11T00:23:59.643Z,27.77
2023-02-11T00:26:29.157Z,27.08
2023-02-11T00:28:57.082Z,27.50
2023-02-11T00:31:24.340Z,27.00
2023-02-11T00:33:51.193Z,26.00
2023-02-11T00:36:23.882Z,29.10
2023-02-11T00:38:51.787Z,26.70
2023-02-11T00:41:20.494Z,29.50
2023-02-11T00:43:47.697Z,26.48
2023-02-11T00:46:15.130Z,27.45
2023-02-11T00:48:42.086Z,26.55
2023-02-11T00:51:09.006Z,26.38
2023-02-11T00:53:35.892Z,27.98
2023-02-11T00:56:02.418Z,27.02
2023-02-11T00:58:29.202Z,27.80
2023-02-11T01:00:56.306Z,27.33
2023-02-11T01:03:23.038Z,27.67
2023-02-11T01:05:49.886Z,26.67
2023-02-11T01:08:16.598Z,28.70
2023-02-11T01:10:43.989Z,29.65
2023-02-11T01:13:11.040Z,27.88
2023-02-11T01:15:37.871Z,26.83
2023-02-11T01:18:05.839Z,27.73
2023-02-11T01:20:32.672Z,28.00
2023-02-11T01:22:59.230Z,26.13
2023-02-11T01:25:25.716Z,27.13
2023-02-11T01:27:52.222Z,26.00
2023-02-11T01:30:18.697Z,27.35
2023-02-11T01:32:45.145Z,28.08
2023-02-11T01:35:11.686Z,26.85
2023-02-11T01:37:38.488Z,26.40
2023-02-11T01:40:12.086Z,28.55
2023-02-11T01:42:38.614Z,27.63
2023-02-11T01:45:39.005Z,27.60
2023-02-11T01:48:05.698Z,28.35
2023-02-11T01:50:32.443Z,28.45
2023-02-11T01:53:18.983Z,31.23
2023-02-11T01:56:04.343Z,27.73
2023-02-11T01:58:34.801Z,28.55
2023-02-11T02:01:04.578Z,27.63
2023-02-11T02:03:33.361Z,28.65
2023-02-11T02:06:03.862Z,28.67
2023-02-11T02:09:05.573Z,29.45
2023-02-11T02:11:32.199Z,28.02
2023-02-11T02:13:59.195Z,28.10
2023-02-11T02:16:33.063Z,26.77
2023-02-11T02:19:11.669Z,26.50
2023-02-11T02:22:16.048Z,27.52
2023-02-11T02:27:20.603Z,25.70
2023-02-11T02:29:49.795Z,27.00
2023-02-11T02:32:32.344Z,27.00
2023-02-11T02:35:20.263Z,26.80
2023-02-11T02:38:05.053Z,27.35
2023-02-11T02:40:36.812Z,27.60
2023-02-11T02:43:04.782Z,27.30
2023-02-11T02:45:31.311Z,27.33
2023-02-11T02:47:57.855Z,26.75
2023-02-11T02:50:30.694Z,28.20
2023-02-11T02:53:27.694Z,26.48
2023-02-11T02:56:06.585Z,27.10
2023-02-11T02:58:51.303Z,26.70
2023-02-11T03:01:40.069Z,27.40
2023-02-11T03:04:21.166Z,29.55
2023-02-11T03:07:07.024Z,25.30
2023-02-11T03:09:47.924Z,27.73
2023-02-11T03:12:15.614Z,25.50
2023-02-11T03:14:42.247Z,26.63
2023-02-11T03:17:10.375Z,27.42
2023-02-11T03:19:43.637Z,26.25
2023-02-11T03:22:29.426Z,25.05
2023-02-11T03:24:56.825Z,26.30
2023-02-11T03:27:37.695Z,25.17
2023-02-11T03:30:33.157Z,26.13
2023-02-11T03:33:23.260Z,25.52
2023-02-11T03:36:19.673Z,27.38
2023-02-11T03:38:50.975Z,25.17
2023-02-11T03:41:21.656Z,26.02
2023-02-11T03:43:51.693Z,25.67
2023-02-11T03:46:22.512Z,26.50
2023-02-11T03:48:56.123Z,25.65
2023-02-11T03:53:54.966Z,24.63
2023-02-11T03:56:25.714Z,23.85
2023-02-11T03:58:52.521Z,26.05
2023-02-11T04:01:19.130Z,25.30
2023-02-11T04:03:45.601Z,25.17
2023-02-11T04:06:12.180Z,25.75
2023-02-11T04:08:38.762Z,25.30
2023-02-11T04:11:05.265Z,25.75
2023-02-11T04:13:31.843Z,24.77
2023-02-11T04:15:58.338Z,24.60
2023-02-11T04:18:24.975Z,24.38
2023-02-11T04:20:51.594Z,27.77
2023-02-11T04:23:18.076Z,26.23
2023-02-11T04:25:44.547Z,26.38
2023-02-11T04:28:11.107Z,26.42
2023-02-11T04:30:37.629Z,29.00
2023-02-11T04:33:04.189Z,25.55
2023-02-11T04:35:30.716Z,25.80
2023-02-11T04:37:57.516Z,26.92
2023-02-11T04:40:24.030Z,27.15
2023-02-11T04:42:50.624Z,25.52
2023-02-11T04:45:17.099Z,28.10
2023-02-11T04:47:43.649Z,26.88
2023-02-11T04:50:10.255Z,27.08
2023-02-11T04:52:36.793Z,26.85
2023-02-11T04:55:04.110Z,27.52
2023-02-11T04:57:30.654Z,26.55
2023-02-11T04:59:57.127Z,27.17
2023-02-11T05:02:23.630Z,28.98
2023-02-11T05:04:50.130Z,28.80
2023-02-11T05:07:16.566Z,29.00
2023-02-11T05:09:43.098Z,32.08
2023-02-11T05:12:10.155Z,30.05
2023-02-11T05:14:36.630Z,29.67
2023-02-11T05:17:03.222Z,30.70
2023-02-11T05:19:31.295Z,28.30
2023-02-11T05:22:03.047Z,29.30
2023-02-11T05:24:33.492Z,29.40
2023-02-11T05:27:00.522Z,28.25
2023-02-11T05:29:27.635Z,28.02
2023-02-11T05:31:54.113Z,28.73
2023-02-11T05:34:20.678Z,28.15
2023-02-11T05:36:47.165Z,29.33
2023-02-11T05:39:13.656Z,26.70
2023-02-11T05:41:40.184Z,26.70
2023-02-11T05:44:06.691Z,28.73
2023-02-11T05:46:33.270Z,28.13
2023-02-11T05:48:59.745Z,26.55
2023-02-11T05:51:26.277Z,25.75
2023-02-11T05:53:53.226Z,25.27
2023-02-11T05:56:19.772Z,26.20
2023-02-11T05:58:46.288Z,26.95
2023-02-11T06:01:12.773Z,26.70
2023-02-11T06:03:39.384Z,27.30
2023-02-11T06:06:10.488Z,28.55
2023-02-11T06:08:39.186Z,26.65
2023-02-11T06:11:05.917Z,26.90
2023-02-11T06:13:32.381Z,27.27
2023-02-11T06:16:00.539Z,28.35
2023-02-11T06:18:27.230Z,28.08
2023-02-11T06:20:53.929Z,27.83
2023-02-11T06:23:20.634Z,26.88
2023-02-11T06:25:47.158Z,26.02
2023-02-11T06:28:13.748Z,26.98
2023-02-11T06:30:40.655Z,28.60
2023-02-11T06:33:07.228Z,26.65
2023-02-11T06:35:35.333Z,27.95
2023-02-11T06:38:01.922Z,26.42
2023-02-11T06:40:28.435Z,27.08
2023-02-11T06:42:54.981Z,27.83
2023-02-11T06:45:21.491Z,28.25
2023-02-11T06:47:47.958Z,26.67
2023-02-11T06:50:15.091Z,30.20
2023-02-11T06:52:41.685Z,29.20
2023-02-11T06:55:08.594Z,25.90
2023-02-11T06:57:35.165Z,26.30
2023-02-11T07:00:01.706Z,26.85
2023-02-11T07:02:28.253Z,26.48
2023-02-11T07:04:54.745Z,26.08
2023-02-11T07:07:21.262Z,26.15
2023-02-11T07:09:47.816Z,25.02
2023-02-11T07:12:14.363Z,26.52
2023-02-11T07:14:40.895Z,27.92
2023-02-11T07:17:07.379Z,24.80
2023-02-11T07:19:33.816Z,25.30
2023-02-11T07:22:00.310Z,24.98
2023-02-11T07:24:26.920Z,26.40
2023-02-11T07:26:54.078Z,27.27
2023-02-11T07:29:20.557Z,28.17
2023-02-11T07:31:47.171Z,26.10
2023-02-11T07:34:13.802Z,28.65
2023-02-11T07:36:40.444Z,28.13
2023-02-11T07:39:06.979Z,29.17
2023-02-11T07:41:37.692Z,28.48
2023-02-11T07:44:04.822Z,26.83
2023-02-11T07:46:31.396Z,25.75
2023-02-11T07:48:58.295Z,28.08
2023-02-11T07:51:27.865Z,29.40
2023-02-11T07:53:55.801Z,27.50
2023-02-11T07:56:23.334Z,25.83
2023-02-11T07:58:50.470Z,27.10
2023-02-11T08:01:25.303Z,27.50
2023-02-11T08:03:52.191Z,28.25
2023-02-11T08:06:20.427Z,26.25
2023-02-11T08:08:47.407Z,26.73
2023-02-11T08:11:19.320Z,27.27
2023-02-11T08:13:46.481Z,24.98
2023-02-11T08:16:27.314Z,25.38
2023-02-11T08:18:57.398Z,25.63
2023-02-11T08:21:24.658Z,25.08
2023-02-11T08:23:51.951Z,24.70
2023-02-11T08:26:21.592Z,23.92
2023-02-11T08:28:49.498Z,25.60
2023-02-11T08:31:18.966Z,24.90
2023-02-11T08:33:46.040Z,24.17
2023-02-11T08:36:17.084Z,26.45
2023-02-11T08:38:44.163Z,25.33
2023-02-11T08:41:11.436Z,24.13
2023-02-11T08:43:41.697Z,24.10
2023-02-11T08:46:09.240Z,23.92
2023-02-11T08:48:35.980Z,24.50
2023-02-11T08:51:10.111Z,23.33
2023-02-11T08:53:37.286Z,23.25
2023-02-11T08:56:03.950Z,24.13
2023-02-11T08:58:30.525Z,24.00
2023-02-11T09:00:57.024Z,24.42
2023-02-11T09:03:23.636Z,24.23
2023-02-11T09:05:53.131Z,26.77
2023-02-11T09:08:20.738Z,24.35
2023-02-11T09:10:47.424Z,26.67
2023-02-11T09:13:14.508Z,24.35
2023-02-11T09:15:44.588Z,25.27
2023-02-11T09:18:11.086Z,25.30
2023-02-11T09:20:37.554Z,25.23
2023-02-11T09:23:04.493Z,25.45
2023-02-11T09:25:30.974Z,25.90
2023-02-11T09:27:57.501Z,25.23
2023-02-11T09:30:24.051Z,24.92
2023-02-11T09:32:50.580Z,25.98
2023-02-11T09:35:17.049Z,25.65
2023-02-11T09:37:43.535Z,24.58
2023-02-11T09:40:10.675Z,23.63
2023-02-11T09:43:09.170Z,23.42
2023-02-11T09:45:35.879Z,24.17
2023-02-11T09:48:11.155Z,25.95
2023-02-11T09:50:50.434Z,24.38
2023-02-11T09:53:29.632Z,24.00
2023-02-11T09:55:59.997Z,24.35
2023-02-11T09:58:29.742Z,24.50
2023-02-11T10:01:14.609Z,23.13
2023-02-11T10:03:56.273Z,24.15
2023-02-11T10:06:31.650Z,23.63
2023-02-11T10:09:42.716Z,22.25
2023-02-11T10:12:32.398Z,22.65
2023-02-11T10:14:58.830Z,23.10
2023-02-11T10:17:47.028Z,22.65
2023-02-11T10:20:29.526Z,23.45
2023-02-11T10:23:01.028Z,25.10
2023-02-11T10:25:34.852Z,23.60
2023-02-11T10:28:10.125Z,24.55
2023-02-11T10:30:53.094Z,23.15
2023-02-11T10:33:32.588Z,23.48
2023-02-11T10:35:59.550Z,23.73
2023-02-11T10:38:27.822Z,23.08
2023-02-11T10:40:54.384Z,22.80
2023-02-11T10:43:25.801Z,21.75
2023-02-11T10:45:54.015Z,21.88
2023-02-11T10:48:51.519Z,23.88
2023-02-11T10:51:21.022Z,21.92
2023-02-11T10:54:14.393Z,21.75
2023-02-11T10:56:45.826Z,22.05
2023-02-11T10:59:21.133Z,23.00
2023-02-11T11:02:00.693Z,22.17
2023-02-11T11:04:30.450Z,22.77
2023-02-11T11:07:09.445Z,23.13
2023-02-11T11:09:59.660Z,21.98
2023-02-11T11:12:48.431Z,22.33
2023-02-11T11:15:23.812Z,23.27
2023-02-11T11:18:20.993Z,21.83
2023-02-11T11:21:01.193Z,22.13
2023-02-11T11:23:29.935Z,23.17
2023-02-11T11:26:40.242Z,22.83
2023-02-11T11:29:16.235Z,23.55
2023-02-11T11:32:05.819Z,24.00
2023-02-11T11:34:41.840Z,24.73
2023-02-11T11:37:22.926Z,24.17
2023-02-11T11:40:07.766Z,23.75
2023-02-11T11:42:39.204Z,25.05
2023-02-11T11:45:20.815Z,23.77
2023-02-11T11:48:02.340Z,22.75
2023-02-11T11:50:38.088Z,24.48
2023-02-11T11:53:12.326Z,23.83
2023-02-11T11:55:45.229Z,24.23
2023-02-11T11:58:17.248Z,23.60
2023-02-11T12:00:52.218Z,23.70
2023-02-11T12:03:37.348Z,25.77
2023-02-11T12:06:21.102Z,24.25
2023-02-11T12:09:25.341Z,24.15
2023-02-11T12:12:16.020Z,23.17
2023-02-11T12:15:19.983Z,23.98
2023-02-11T12:18:04.637Z,24.67
2023-02-11T12:20:43.473Z,23.77
2023-02-11T12:23:44.225Z,24.80
2023-02-11T12:26:21.676Z,24.45
2023-02-11T12:29:12.916Z,23.52
2023-02-11T12:32:00.653Z,23.95
2023-02-11T12:34:35.920Z,24.67
2023-02-11T12:37:47.537Z,24.20
2023-02-11T12:40:38.212Z,23.27
2023-02-11T12:43:18.397Z,23.55
2023-02-11T12:46:26.135Z,24.17
2023-02-11T12:49:11.728Z,20.55
2023-02-11T12:51:56.841Z,22.27
2023-02-11T12:54:56.324Z,22.50
2023-02-11T12:57:27.054Z,20.45
2023-02-11T13:00:13.907Z,21.55
2023-02-11T13:02:55.698Z,20.80
2023-02-11T13:05:40.614Z,20.23
2023-02-11T13:08:19.515Z,18.48
2023-02-11T13:10:54.970Z,19.35
2023-02-11T13:13:26.611Z,19.83
2023-02-11T13:16:10.494Z,22.17
2023-02-11T13:18:49.630Z,21.02
2023-02-11T13:21:16.545Z,20.88
2023-02-11T13:23:49.174Z,20.33
2023-02-11T13:26:24.786Z,22.33
2023-02-11T13:29:00.093Z,21.42
2023-02-11T13:31:28.581Z,22.63
2023-02-11T13:33:55.623Z,21.50
2023-02-11T13:36:24.756Z,23.45
2023-02-11T13:39:03.833Z,22.08
2023-02-11T13:41:38.456Z,21.73
2023-02-11T13:44:10.689Z,20.73
2023-02-11T13:46:55.610Z,21.92
2023-02-11T13:49:47.792Z,22.50
2023-02-11T13:52:27.820Z,23.45
2023-02-11T13:54:57.677Z,22.52
2023-02-11T13:57:32.331Z,21.98
2023-02-11T14:00:34.020Z,21.55
2023-02-11T14:03:31.170Z,22.20
2023-02-11T14:06:44.645Z,22.45
2023-02-11T14:09:13.909Z,24.20
2023-02-11T14:11:40.813Z,24.75
2023-02-11T14:14:27.242Z,24.33
2023-02-11T14:16:59.761Z,20.45
2023-02-11T14:19:40.877Z,21.77
2023-02-11T14:22:10.427Z,22.70
2023-02-11T14:24:36.884Z,22.55
2023-02-11T14:27:09.929Z,23.73
2023-02-11T14:29:58.430Z,23.25
2023-02-11T14:32:43.484Z,22.60
2023-02-11T14:35:43.849Z,22.35
2023-02-11T14:38:29.518Z,23.48
2023-02-11T14:41:06.571Z,23.58
2023-02-11T14:43:40.926Z,21.60
2023-02-11T14:46:09.108Z,22.52
2023-02-11T14:48:39.189Z,21.77
2023-02-11T14:51:21.035Z,21.48
2023-02-11T14:53:50.984Z,19.48
2023-02-11T14:56:26.673Z,20.52
2023-02-11T14:58:54.889Z,19.15
2023-02-11T15:01:35.130Z,21.15
2023-02-11T15:04:04.352Z,21.60
2023-02-11T15:06:33.210Z,20.17
2023-02-11T15:09:04.986Z,20.95
2023-02-11T15:11:39.764Z,20.02
2023-02-11T15:14:22.847Z,19.40
2023-02-11T15:16:53.381Z,19.55
2023-02-11T15:19:38.376Z,19.00
2023-02-11T15:22:08.109Z,18.25
2023-02-11T15:24:35.631Z,20.05
2023-02-11T15:27:16.154Z,20.25
2023-02-11T15:29:51.127Z,19.63
2023-02-11T15:32:25.950Z,20.17
2023-02-11T15:34:54.224Z,18.20
2023-02-11T15:37:26.772Z,18.85
2023-02-11T15:39:54.669Z,20.23
2023-02-11T15:42:35.823Z,19.98
2023-02-11T15:45:09.245Z,17.67
2023-02-11T15:47:36.343Z,18.35
2023-02-11T15:50:03.034Z,17.30
2023-02-11T15:52:30.344Z,16.95
2023-02-11T15:55:01.626Z,17.45
2023-02-11T15:57:28.755Z,18.25
2023-02-11T15:59:56.315Z,16.85
2023-02-11T16:02:34.213Z,17.27
2023-02-11T16:05:05.241Z,16.20
2023-02-11T16:07:52.202Z,15.50
2023-02-11T16:10:29.289Z,15.55
2023-02-11T16:13:19.950Z,15.13
2023-02-11T16:15:49.261Z,14.88
2023-02-11T16:18:28.459Z,15.57
2023-02-11T16:21:02.185Z,15.25
2023-02-11T16:23:42.193Z,15.73
2023-02-11T16:26:29.429Z,16.75
2023-02-11T16:29:27.228Z,15.57
2023-02-11T16:32:08.905Z,15.25
2023-02-11T16:34:36.382Z,15.45
2023-02-11T16:37:05.406Z,15.82
2023-02-11T16:39:31.926Z,15.50
2023-02-11T16:41:58.770Z,15.10
2023-02-11T16:44:25.446Z,14.98
2023-02-11T16:46:53.340Z,14.32
2023-02-11T16:49:26.175Z,16.85
2023-02-11T16:51:56.928Z,15.80
2023-02-11T16:54:24.156Z,16.13
2023-02-11T16:56:50.697Z,15.55
2023-02-11T16:59:17.303Z,15.60
2023-02-11T17:01:44.890Z,13.88
2023-02-11T17:04:25.255Z,13.52
2023-02-11T17:06:51.777Z,15.68
2023-02-11T17:09:20.960Z,14.68
2023-02-11T17:11:47.856Z,15.73
2023-02-11T17:14:14.428Z,16.27
2023-02-11T17:16:41.222Z,17.20
2023-02-11T17:19:07.834Z,17.45
2023-02-11T17:21:34.379Z,17.17
2023-02-11T17:24:00.877Z,16.50
2023-02-11T17:26:27.342Z,16.98
2023-02-11T17:28:53.798Z,17.15
2023-02-11T17:31:20.335Z,19.17
2023-02-11T17:33:48.305Z,17.80
2023-02-11T17:36:14.840Z,20.27
2023-02-11T17:38:41.327Z,19.08
2023-02-11T17:41:07.886Z,17.50
2023-02-11T17:43:34.481Z,17.05
2023-02-11T17:46:01.054Z,18.00
2023-02-11T17:48:27.575Z,17.75
2023-02-11T17:50:54.116Z,18.65
2023-02-11T17:53:20.675Z,17.77
2023-02-11T17:55:47.214Z,17.27
2023-02-11T17:58:13.667Z,18.50
2023-02-11T18:00:40.274Z,19.63
2023-02-11T18:03:06.872Z,19.15
2023-02-11T18:05:35.162Z,19.30
2023-02-11T18:08:02.917Z,18.10
2023-02-11T18:10:29.617Z,19.35
2023-02-11T18:12:56.226Z,17.65
2023-02-11T18:15:23.346Z,19.23
2023-02-11T18:17:49.810Z,17.95
2023-02-11T18:20:16.497Z,18.67
2023-02-11T18:22:44.226Z,18.52
2023-02-11T18:25:14.020Z,19.45
2023-02-11T18:27:40.661Z,19.38
2023-02-11T18:30:08.466Z,19.02
2023-02-11T18:32:34.922Z,18.95
2023-02-11T18:35:01.396Z,19.25
2023-02-11T18:37:27.941Z,18.63
2023-02-11T18:39:54.464Z,19.33
2023-02-11T18:42:20.985Z,19.10
2023-02-11T18:44:47.484Z,18.30
2023-02-11T18:47:14.022Z,19.98
2023-02-11T18:49:40.489Z,19.92
2023-02-11T18:52:06.988Z,18.67
2023-02-11T18:54:33.457Z,20.00
2023-02-11T18:56:59.989Z,21.50
2023-02-11T18:59:26.649Z,20.38
2023-02-11T19:01:53.254Z,19.58
2023-02-11T19:04:20.118Z,20.80
2023-02-11T19:06:49.447Z,20.30
2023-02-11T19:09:19.280Z,20.05
2023-02-11T19:11:54.015Z,18.55
2023-02-11T19:14:31.651Z,20.55
2023-02-11T19:17:00.275Z,21.45
2023-02-11T19:19:29.723Z,23.45
2023-02-11T19:21:57.258Z,21.45
2023-02-11T19:24:24.692Z,18.70
2023-02-11T19:26:53.467Z,20.70
2023-02-11T19:29:20.021Z,17.92
2023-02-11T19:31:46.900Z,20.08
2023-02-11T19:34:15.347Z,19.15
2023-02-11T19:36:42.097Z,19.38
2023-02-11T19:39:10.046Z,19.60
2023-02-11T19:41:36.715Z,20.45
2023-02-11T19:44:04.890Z,20.63
2023-02-11T19:46:34.608Z,18.50
2023-02-11T19:49:01.964Z,19.15
2023-02-11T19:51:29.545Z,18.85
2023-02-11T19:53:58.005Z,18.50
2023-02-11T19:56:30.621Z,18.48
2023-02-11T19:58:57.366Z,18.43
2023-02-11T20:01:25.422Z,17.63
2023-02-11T20:03:54.019Z,19.85
2023-02-11T20:06:26.204Z,19.95
2023-02-11T20:08:58.595Z,19.75
2023-02-11T20:11:27.949Z,15.05
2023-02-11T20:13:55.078Z,20.60
2023-02-11T20:16:36.811Z,19.88
2023-02-11T20:19:14.896Z,20.10
2023-02-11T20:21:41.436Z,20.58
2023-02-11T20:24:07.956Z,19.65
2023-02-11T20:26:34.923Z,19.52
2023-02-11T20:29:04.981Z,19.42
2023-02-11T20:31:32.333Z,18.95
2023-02-11T20:34:00.060Z,20.70
2023-02-11T20:36:32.613Z,20.23
2023-02-11T20:39:00.220Z,15.10
2023-02-11T20:41:30.822Z,20.27
2023-02-11T20:43:59.533Z,20.27
2023-02-11T20:46:28.430Z,19.75
2023-02-11T20:48:56.382Z,19.58
2023-02-11T20:51:28.542Z,21.80
2023-02-11T20:53:55.375Z,20.33
2023-02-11T20:56:24.459Z,20.83
2023-02-11T20:58:51.898Z,20.48
2023-02-11T21:01:24.366Z,20.13
2023-02-11T21:04:15.511Z,22.20
2023-02-11T21:06:44.551Z,19.17
2023-02-11T21:09:13.977Z,19.38
2023-02-11T21:11:40.854Z,19.27
2023-02-11T21:14:07.697Z,20.52
2023-02-11T21:16:34.260Z,20.33
2023-02-11T21:19:01.197Z,20.38
2023-02-11T21:21:27.937Z,19.58
2023-02-11T21:23:56.040Z,21.52
2023-02-11T21:26:22.959Z,19.92
2023-02-11T21:28:50.045Z,20.38
2023-02-11T21:31:21.540Z,20.88
2023-02-11T21:33:49.593Z,19.23
2023-02-11T21:36:16.062Z,20.05
2023-02-11T21:38:43.021Z,21.13
2023-02-11T21:41:09.654Z,19.17
2023-02-11T21:43:36.165Z,20.10
2023-02-11T21:46:08.680Z,20.80
2023-02-11T21:48:35.238Z,20.23
2023-02-11T21:51:06.390Z,20.42
2023-02-11T21:53:33.037Z,19.45
2023-02-11T21:56:15.502Z,20.33
2023-02-11T21:58:42.452Z,19.05
2023-02-11T22:01:17.625Z,19.77
2023-02-11T22:03:45.306Z,18.40
2023-02-11T22:06:15.443Z,20.08
2023-02-11T22:08:42.161Z,20.83
2023-02-11T22:11:12.211Z,20.63
2023-02-11T22:13:39.428Z,19.40
2023-02-11T22:16:09.563Z,20.13
2023-02-11T22:18:36.616Z,20.30
2023-02-11T22:21:23.455Z,21.05
2023-02-11T22:23:51.116Z,20.00
2023-02-11T22:26:20.382Z,20.10
2023-02-11T22:28:47.263Z,20.00
2023-02-11T22:31:24.026Z,19.65
2023-02-11T22:33:50.845Z,18.13
2023-02-11T22:36:20.823Z,19.38
2023-02-11T22:38:48.059Z,19.75
2023-02-11T22:41:15.051Z,18.95
2023-02-11T22:43:43.219Z,19.73
2023-02-11T22:46:12.292Z,19.88
2023-02-11T22:48:38.786Z,18.95
2023-02-11T22:51:07.734Z,19.98
2023-02-11T22:53:34.765Z,18.98
2023-02-11T22:56:07.171Z,18.58
2023-02-11T22:58:34.930Z,17.60
2023-02-11T23:01:01.828Z,18.77
2023-02-11T23:03:29.277Z,18.40
2023-02-11T23:05:58.399Z,19.38
2023-02-11T23:08:25.874Z,18.50
2023-02-11T23:10:52.684Z,19.17
2023-02-11T23:13:19.173Z,19.05
2023-02-11T23:15:47.648Z,19.58
2023-02-11T23:18:14.360Z,19.23
2023-02-11T23:20:43.109Z,19.67
2023-02-11T23:23:09.665Z,19.30
2023-02-11T23:25:42.755Z,19.10
2023-02-11T23:28:09.790Z,21.23
2023-02-11T23:30:36.344Z,20.95
2023-02-11T23:33:02.859Z,20.27
2023-02-11T23:35:29.427Z,18.63
2023-02-11T23:37:55.879Z,20.48
2023-02-11T23:40:22.471Z,22.40
2023-02-11T23:42:49.042Z,19.48
2023-02-11T23:45:15.695Z,19.20
2023-02-11T23:47:42.228Z,20.67
2023-02-11T23:50:09.755Z,20.58
2023-02-11T23:52:36.596Z,20.42
2023-02-11T23:55:03.071Z,20.25
2023-02-11T23:57:32.564Z,19.58
2023-02-11T23:59:59.117Z,19.52
